sensor_id;sensor_type;location;lat;lon;timestamp;P1;durP1;ratioP1;P2;durP2;ratioP2
44098;SDS011;29762;50.086;14.364;2022-09-12T00:00:03;3.63;;;1.80;;
44098;SDS011;29762;50.086;14.364;2022-09-12T00:05:50;1.70;;;1.60;;
44098;SDS011;29762;50.086;14.364;2022-09-12T00:11:10;1.63;;;1.52;;
44098;SDS011;29762;50.086;14.364;2022-09-12T00:16:31;1.98;;;1.77;;
44098;SDS011;29762;50.086;14.364;2022-09-12T00:21:51;1.60;;;1.50;;
44098;SDS011;29762;50.086;14.364;2022-09-12T00:27:11;1.75;;;1.50;;
44098;SDS011;29762;50.086;14.364;2022-09-12T00:32:30;1.77;;;1.50;;
44098;SDS011;29762;50.086;14.364;2022-09-12T00:37:49;1.70;;;1.60;;
44098;SDS011;29762;50.086;14.364;2022-09-12T00:43:12;1.90;;;1.70;;
44098;SDS011;29762;50.086;14.364;2022-09-12T00:48:34;2.10;;;1.75;;
44098;SDS011;29762;50.086;14.364;2022-09-12T00:53:58;1.70;;;1.60;;
44098;SDS011;29762;50.086;14.364;2022-09-12T00:59:21;2.03;;;1.83;;
44098;SDS011;29762;50.086;14.364;2022-09-12T01:04:44;2.47;;;1.52;;
44098;SDS011;29762;50.086;14.364;2022-09-12T01:10:06;2.10;;;1.90;;
44098;SDS011;29762;50.086;14.364;2022-09-12T01:15:27;5.97;;;1.80;;
44098;SDS011;29762;50.086;14.364;2022-09-12T01:37:26;1.65;;;1.42;;
44098;SDS011;29762;50.086;14.364;2022-09-12T01:48:21;1.63;;;1.52;;
44098;SDS011;29762;50.086;14.364;2022-09-12T01:53:43;1.70;;;1.60;;
44098;SDS011;29762;50.086;14.364;2022-09-12T01:59:08;1.80;;;1.48;;
44098;SDS011;29762;50.086;14.364;2022-09-12T02:04:35;1.63;;;1.45;;
44098;SDS011;29762;50.086;14.364;2022-09-12T02:10:09;1.70;;;1.40;;
44098;SDS011;29762;50.086;14.364;2022-09-12T02:15:45;1.92;;;1.50;;
44098;SDS011;29762;50.086;14.364;2022-09-12T02:21:09;1.80;;;1.27;;
44098;SDS011;29762;50.086;14.364;2022-09-12T02:26:30;1.55;;;1.38;;
44098;SDS011;29762;50.086;14.364;2022-09-12T02:31:56;1.60;;;1.50;;
44098;SDS011;29762;50.086;14.364;2022-09-12T02:43:14;1.65;;;1.50;;
44098;SDS011;29762;50.086;14.364;2022-09-12T02:48:34;1.60;;;1.50;;
44098;SDS011;29762;50.086;14.364;2022-09-12T02:53:56;1.58;;;1.48;;
44098;SDS011;29762;50.086;14.364;2022-09-12T02:59:17;1.60;;;1.50;;
44098;SDS011;29762;50.086;14.364;2022-09-12T03:27:26;1.67;;;1.30;;
44098;SDS011;29762;50.086;14.364;2022-09-12T03:32:50;1.58;;;1.48;;
44098;SDS011;29762;50.086;14.364;2022-09-12T03:38:11;1.60;;;1.50;;
44098;SDS011;29762;50.086;14.364;2022-09-12T03:43:30;2.10;;;1.30;;
44098;SDS011;29762;50.086;14.364;2022-09-12T03:48:50;1.48;;;1.38;;
44098;SDS011;29762;50.086;14.364;2022-09-12T03:54:09;1.35;;;1.27;;
44098;SDS011;29762;50.086;14.364;2022-09-12T03:59:29;1.58;;;1.48;;
44098;SDS011;29762;50.086;14.364;2022-09-12T04:04:50;1.60;;;1.30;;
44098;SDS011;29762;50.086;14.364;2022-09-12T04:10:09;1.60;;;1.30;;
44098;SDS011;29762;50.086;14.364;2022-09-12T04:15:28;1.67;;;1.55;;
44098;SDS011;29762;50.086;14.364;2022-09-12T04:20:47;2.00;;;1.77;;
44098;SDS011;29762;50.086;14.364;2022-09-12T04:26:07;1.48;;;1.38;;
44098;SDS011;29762;50.086;14.364;2022-09-12T04:31:27;1.70;;;1.60;;
44098;SDS011;29762;50.086;14.364;2022-09-12T04:36:47;2.38;;;1.40;;
44098;SDS011;29762;50.086;14.364;2022-09-12T04:42:06;1.85;;;1.73;;
44098;SDS011;29762;50.086;14.364;2022-09-12T04:47:25;4.07;;;1.77;;
44098;SDS011;29762;50.086;14.364;2022-09-12T04:52:51;1.88;;;1.75;;
44098;SDS011;29762;50.086;14.364;2022-09-12T04:58:12;2.60;;;1.90;;
44098;SDS011;29762;50.086;14.364;2022-09-12T05:03:31;3.50;;;1.77;;
44098;SDS011;29762;50.086;14.364;2022-09-12T05:08:51;2.08;;;1.85;;
44098;SDS011;29762;50.086;14.364;2022-09-12T05:14:12;2.83;;;2.08;;
44098;SDS011;29762;50.086;14.364;2022-09-12T05:19:32;2.25;;;2.05;;
44098;SDS011;29762;50.086;14.364;2022-09-12T05:24:51;2.78;;;1.60;;
44098;SDS011;29762;50.086;14.364;2022-09-12T05:30:11;3.45;;;2.13;;
44098;SDS011;29762;50.086;14.364;2022-09-12T05:35:30;5.80;;;2.42;;
44098;SDS011;29762;50.086;14.364;2022-09-12T05:40:51;6.25;;;3.00;;
44098;SDS011;29762;50.086;14.364;2022-09-12T05:46:14;6.55;;;3.00;;
44098;SDS011;29762;50.086;14.364;2022-09-12T05:51:35;10.10;;;3.63;;
44098;SDS011;29762;50.086;14.364;2022-09-12T05:56:56;8.93;;;3.63;;
44098;SDS011;29762;50.086;14.364;2022-09-12T06:02:15;8.85;;;3.72;;
44098;SDS011;29762;50.086;14.364;2022-09-12T06:07:35;8.48;;;3.90;;
44098;SDS011;29762;50.086;14.364;2022-09-12T06:12:54;9.38;;;3.85;;
44098;SDS011;29762;50.086;14.364;2022-09-12T06:18:14;8.35;;;3.92;;
44098;SDS011;29762;50.086;14.364;2022-09-12T06:23:33;8.32;;;4.10;;
44098;SDS011;29762;50.086;14.364;2022-09-12T06:28:54;6.82;;;3.55;;
44098;SDS011;29762;50.086;14.364;2022-09-12T06:34:14;9.55;;;4.43;;
44098;SDS011;29762;50.086;14.364;2022-09-12T06:39:34;6.85;;;3.63;;
44098;SDS011;29762;50.086;14.364;2022-09-12T06:44:55;6.82;;;3.70;;
44098;SDS011;29762;50.086;14.364;2022-09-12T06:50:14;6.75;;;4.00;;
44098;SDS011;29762;50.086;14.364;2022-09-12T06:55:35;8.50;;;3.90;;
44098;SDS011;29762;50.086;14.364;2022-09-12T07:01:16;11.52;;;3.97;;
44098;SDS011;29762;50.086;14.364;2022-09-12T07:06:38;7.18;;;4.05;;
44098;SDS011;29762;50.086;14.364;2022-09-12T07:11:59;10.80;;;3.72;;
44098;SDS011;29762;50.086;14.364;2022-09-12T07:17:22;7.88;;;4.05;;
44098;SDS011;29762;50.086;14.364;2022-09-12T07:22:41;6.72;;;3.80;;
44098;SDS011;29762;50.086;14.364;2022-09-12T07:28:01;8.75;;;3.50;;
44098;SDS011;29762;50.086;14.364;2022-09-12T07:33:27;9.18;;;3.60;;
44098;SDS011;29762;50.086;14.364;2022-09-12T07:38:47;8.90;;;3.80;;
44098;SDS011;29762;50.086;14.364;2022-09-12T07:44:12;8.00;;;3.72;;
44098;SDS011;29762;50.086;14.364;2022-09-12T07:49:31;7.95;;;3.53;;
44098;SDS011;29762;50.086;14.364;2022-09-12T07:54:50;6.07;;;3.40;;
44098;SDS011;29762;50.086;14.364;2022-09-12T08:00:10;7.53;;;4.00;;
44098;SDS011;29762;50.086;14.364;2022-09-12T08:05:33;7.20;;;3.72;;
44098;SDS011;29762;50.086;14.364;2022-09-12T08:10:56;8.13;;;3.97;;
44098;SDS011;29762;50.086;14.364;2022-09-12T08:16:20;7.10;;;3.83;;
44098;SDS011;29762;50.086;14.364;2022-09-12T08:21:40;5.35;;;3.60;;
44098;SDS011;29762;50.086;14.364;2022-09-12T08:26:59;5.60;;;3.70;;
44098;SDS011;29762;50.086;14.364;2022-09-12T08:32:18;6.95;;;4.30;;
44098;SDS011;29762;50.086;14.364;2022-09-12T08:37:38;4.72;;;4.05;;
44098;SDS011;29762;50.086;14.364;2022-09-12T08:43:02;7.22;;;4.32;;
44098;SDS011;29762;50.086;14.364;2022-09-12T08:48:24;5.40;;;4.20;;
44098;SDS011;29762;50.086;14.364;2022-09-12T08:53:44;6.13;;;4.18;;
44098;SDS011;29762;50.086;14.364;2022-09-12T08:59:07;4.90;;;3.90;;
44098;SDS011;29762;50.086;14.364;2022-09-12T09:04:49;5.82;;;4.30;;
44098;SDS011;29762;50.086;14.364;2022-09-12T09:16:08;3.90;;;3.38;;
44098;SDS011;29762;50.086;14.364;2022-09-12T09:21:39;5.33;;;4.03;;
44098;SDS011;29762;50.086;14.364;2022-09-12T09:27:08;3.80;;;3.35;;
44098;SDS011;29762;50.086;14.364;2022-09-12T09:32:31;4.33;;;3.87;;
44098;SDS011;29762;50.086;14.364;2022-09-12T09:38:01;4.07;;;3.65;;
44098;SDS011;29762;50.086;14.364;2022-09-12T09:43:26;4.20;;;3.70;;
44098;SDS011;29762;50.086;14.364;2022-09-12T09:48:47;3.88;;;3.47;;
44098;SDS011;29762;50.086;14.364;2022-09-12T09:59:39;3.63;;;3.28;;
44098;SDS011;29762;50.086;14.364;2022-09-12T10:04:58;4.97;;;3.28;;
44098;SDS011;29762;50.086;14.364;2022-09-12T10:10:18;4.88;;;3.35;;
44098;SDS011;29762;50.086;14.364;2022-09-12T10:15:40;3.30;;;2.97;;
44098;SDS011;29762;50.086;14.364;2022-09-12T10:26:54;3.60;;;3.25;;
44098;SDS011;29762;50.086;14.364;2022-09-12T10:32:35;4.83;;;3.10;;
44098;SDS011;29762;50.086;14.364;2022-09-12T10:38:02;6.43;;;3.63;;
44098;SDS011;29762;50.086;14.364;2022-09-12T10:48:48;4.53;;;3.75;;
44098;SDS011;29762;50.086;14.364;2022-09-12T10:54:09;3.88;;;3.47;;
44098;SDS011;29762;50.086;14.364;2022-09-12T10:59:32;3.67;;;3.33;;
44098;SDS011;29762;50.086;14.364;2022-09-12T11:05:25;3.60;;;3.30;;
44098;SDS011;29762;50.086;14.364;2022-09-12T11:11:03;3.55;;;3.10;;
44098;SDS011;29762;50.086;14.364;2022-09-12T11:33:06;2.83;;;2.40;;
44098;SDS011;29762;50.086;14.364;2022-09-12T11:49:49;2.70;;;2.50;;
44098;SDS011;29762;50.086;14.364;2022-09-12T11:55:16;2.60;;;2.40;;
44098;SDS011;29762;50.086;14.364;2022-09-12T12:06:09;2.50;;;2.30;;
44098;SDS011;29762;50.086;14.364;2022-09-12T12:11:49;2.55;;;2.08;;
44098;SDS011;29762;50.086;14.364;2022-09-12T12:17:13;2.60;;;2.40;;
44098;SDS011;29762;50.086;14.364;2022-09-12T12:22:36;2.45;;;2.25;;
44098;SDS011;29762;50.086;14.364;2022-09-12T12:27:56;3.22;;;2.63;;
44098;SDS011;29762;50.086;14.364;2022-09-12T12:38:39;3.05;;;2.55;;
44098;SDS011;29762;50.086;14.364;2022-09-12T12:43:59;2.60;;;2.40;;
44098;SDS011;29762;50.086;14.364;2022-09-12T12:50:01;3.07;;;2.77;;
44098;SDS011;29762;50.086;14.364;2022-09-12T12:55:25;3.10;;;2.80;;
44098;SDS011;29762;50.086;14.364;2022-09-12T13:00:46;2.92;;;2.38;;
44098;SDS011;29762;50.086;14.364;2022-09-12T13:12:05;3.20;;;2.65;;
44098;SDS011;29762;50.086;14.364;2022-09-12T13:17:28;3.10;;;2.80;;
44098;SDS011;29762;50.086;14.364;2022-09-12T13:22:49;3.35;;;2.72;;
44098;SDS011;29762;50.086;14.364;2022-09-12T13:44:52;5.22;;;3.28;;
44098;SDS011;29762;50.086;14.364;2022-09-12T13:55:48;8.60;;;3.63;;
44098;SDS011;29762;50.086;14.364;2022-09-12T14:06:44;7.57;;;3.60;;
44098;SDS011;29762;50.086;14.364;2022-09-12T14:12:39;7.78;;;3.88;;
44098;SDS011;29762;50.086;14.364;2022-09-12T14:17:59;7.35;;;3.83;;
44098;SDS011;29762;50.086;14.364;2022-09-12T14:23:23;8.40;;;3.30;;
44098;SDS011;29762;50.086;14.364;2022-09-12T14:28:45;5.88;;;3.20;;
44098;SDS011;29762;50.086;14.364;2022-09-12T14:39:36;3.72;;;3.20;;
44098;SDS011;29762;50.086;14.364;2022-09-12T14:44:59;4.05;;;2.95;;
44098;SDS011;29762;50.086;14.364;2022-09-12T14:50:22;4.45;;;3.03;;
44098;SDS011;29762;50.086;14.364;2022-09-12T14:55:46;6.85;;;3.10;;
44098;SDS011;29762;50.086;14.364;2022-09-12T15:01:24;2.92;;;2.70;;
44098;SDS011;29762;50.086;14.364;2022-09-12T15:06:44;3.72;;;2.80;;
44098;SDS011;29762;50.086;14.364;2022-09-12T15:12:03;2.63;;;2.42;;
44098;SDS011;29762;50.086;14.364;2022-09-12T15:17:23;2.90;;;2.70;;
44098;SDS011;29762;50.086;14.364;2022-09-12T15:22:42;2.75;;;2.55;;
44098;SDS011;29762;50.086;14.364;2022-09-12T15:28:04;3.67;;;2.55;;
44098;SDS011;29762;50.086;14.364;2022-09-12T15:33:29;2.83;;;2.30;;
44098;SDS011;29762;50.086;14.364;2022-09-12T15:38:49;3.15;;;2.75;;
44098;SDS011;29762;50.086;14.364;2022-09-12T15:44:12;3.20;;;2.60;;
44098;SDS011;29762;50.086;14.364;2022-09-12T15:49:33;3.08;;;2.78;;
44098;SDS011;29762;50.086;14.364;2022-09-12T15:54:52;3.20;;;2.80;;
44098;SDS011;29762;50.086;14.364;2022-09-12T16:00:13;2.90;;;2.70;;
44098;SDS011;29762;50.086;14.364;2022-09-12T16:05:34;3.00;;;2.75;;
44098;SDS011;29762;50.086;14.364;2022-09-12T16:11:11;2.90;;;2.70;;
44098;SDS011;29762;50.086;14.364;2022-09-12T16:16:33;6.60;;;3.20;;
44098;SDS011;29762;50.086;14.364;2022-09-12T16:21:53;4.10;;;2.72;;
44098;SDS011;29762;50.086;14.364;2022-09-12T16:27:13;2.38;;;2.05;;
44098;SDS011;29762;50.086;14.364;2022-09-12T16:32:32;2.67;;;2.47;;
44098;SDS011;29762;50.086;14.364;2022-09-12T16:37:52;2.42;;;2.22;;
44098;SDS011;29762;50.086;14.364;2022-09-12T16:43:11;2.35;;;2.05;;
44098;SDS011;29762;50.086;14.364;2022-09-12T16:48:32;2.60;;;2.33;;
44098;SDS011;29762;50.086;14.364;2022-09-12T16:53:52;2.47;;;2.28;;
44098;SDS011;29762;50.086;14.364;2022-09-12T16:59:12;2.65;;;2.45;;
44098;SDS011;29762;50.086;14.364;2022-09-12T17:04:34;2.45;;;2.25;;
44098;SDS011;29762;50.086;14.364;2022-09-12T17:09:54;2.22;;;2.03;;
44098;SDS011;29762;50.086;14.364;2022-09-12T17:15:14;2.13;;;1.92;;
44098;SDS011;29762;50.086;14.364;2022-09-12T17:20:34;2.42;;;2.20;;
44098;SDS011;29762;50.086;14.364;2022-09-12T17:25:54;2.40;;;2.20;;
44098;SDS011;29762;50.086;14.364;2022-09-12T17:31:14;4.93;;;2.35;;
44098;SDS011;29762;50.086;14.364;2022-09-12T17:36:33;2.53;;;2.30;;
44098;SDS011;29762;50.086;14.364;2022-09-12T17:41:53;2.40;;;2.20;;
44098;SDS011;29762;50.086;14.364;2022-09-12T17:47:15;2.88;;;2.28;;
44098;SDS011;29762;50.086;14.364;2022-09-12T17:52:34;2.70;;;2.50;;
44098;SDS011;29762;50.086;14.364;2022-09-12T17:57:54;2.58;;;2.30;;
44098;SDS011;29762;50.086;14.364;2022-09-12T18:03:14;2.67;;;2.38;;
44098;SDS011;29762;50.086;14.364;2022-09-12T18:08:34;3.53;;;2.70;;
44098;SDS011;29762;50.086;14.364;2022-09-12T18:13:53;4.80;;;2.58;;
44098;SDS011;29762;50.086;14.364;2022-09-12T18:19:13;3.55;;;2.60;;
44098;SDS011;29762;50.086;14.364;2022-09-12T18:24:33;3.15;;;2.30;;
44098;SDS011;29762;50.086;14.364;2022-09-12T18:29:52;3.03;;;2.22;;
44098;SDS011;29762;50.086;14.364;2022-09-12T18:35:12;4.60;;;2.50;;
44098;SDS011;29762;50.086;14.364;2022-09-12T18:40:31;3.08;;;2.70;;
44098;SDS011;29762;50.086;14.364;2022-09-12T18:45:51;3.20;;;2.47;;
44098;SDS011;29762;50.086;14.364;2022-09-12T18:51:14;4.40;;;2.53;;
44098;SDS011;29762;50.086;14.364;2022-09-12T18:56:39;6.43;;;2.40;;
44098;SDS011;29762;50.086;14.364;2022-09-12T19:02:01;6.43;;;2.35;;
44098;SDS011;29762;50.086;14.364;2022-09-12T19:07:23;6.25;;;2.40;;
44098;SDS011;29762;50.086;14.364;2022-09-12T19:12:42;3.75;;;2.38;;
44098;SDS011;29762;50.086;14.364;2022-09-12T19:18:05;4.35;;;2.00;;
44098;SDS011;29762;50.086;14.364;2022-09-12T19:23:25;3.17;;;2.25;;
44098;SDS011;29762;50.086;14.364;2022-09-12T19:28:45;2.67;;;2.40;;
44098;SDS011;29762;50.086;14.364;2022-09-12T19:34:05;2.75;;;2.40;;
44098;SDS011;29762;50.086;14.364;2022-09-12T19:39:25;3.88;;;2.60;;
44098;SDS011;29762;50.086;14.364;2022-09-12T19:44:44;3.00;;;2.30;;
44098;SDS011;29762;50.086;14.364;2022-09-12T19:50:05;2.90;;;2.10;;
44098;SDS011;29762;50.086;14.364;2022-09-12T19:55:26;3.10;;;2.38;;
44098;SDS011;29762;50.086;14.364;2022-09-12T20:00:46;4.25;;;2.45;;
44098;SDS011;29762;50.086;14.364;2022-09-12T20:06:06;3.38;;;2.30;;
44098;SDS011;29762;50.086;14.364;2022-09-12T20:11:28;4.25;;;2.30;;
44098;SDS011;29762;50.086;14.364;2022-09-12T20:16:48;2.85;;;2.20;;
44098;SDS011;29762;50.086;14.364;2022-09-12T20:22:08;3.20;;;2.13;;
44098;SDS011;29762;50.086;14.364;2022-09-12T20:27:27;5.00;;;2.40;;
44098;SDS011;29762;50.086;14.364;2022-09-12T20:32:47;4.07;;;2.00;;
44098;SDS011;29762;50.086;14.364;2022-09-12T20:38:08;3.55;;;2.47;;
44098;SDS011;29762;50.086;14.364;2022-09-12T20:43:28;5.00;;;2.40;;
44098;SDS011;29762;50.086;14.364;2022-09-12T20:48:47;2.78;;;2.35;;
44098;SDS011;29762;50.086;14.364;2022-09-12T20:54:07;4.57;;;2.28;;
44098;SDS011;29762;50.086;14.364;2022-09-12T20:59:28;5.47;;;2.47;;
44098;SDS011;29762;50.086;14.364;2022-09-12T21:04:47;2.50;;;2.30;;
44098;SDS011;29762;50.086;14.364;2022-09-12T21:10:07;2.60;;;2.35;;
44098;SDS011;29762;50.086;14.364;2022-09-12T21:15:27;4.85;;;2.65;;
44098;SDS011;29762;50.086;14.364;2022-09-12T21:20:50;3.38;;;2.22;;
44098;SDS011;29762;50.086;14.364;2022-09-12T21:26:12;2.63;;;2.10;;
44098;SDS011;29762;50.086;14.364;2022-09-12T21:31:32;3.85;;;2.38;;
44098;SDS011;29762;50.086;14.364;2022-09-12T21:36:51;3.08;;;2.30;;
44098;SDS011;29762;50.086;14.364;2022-09-12T21:42:10;4.35;;;2.17;;
44098;SDS011;29762;50.086;14.364;2022-09-12T21:47:30;4.47;;;2.25;;
44098;SDS011;29762;50.086;14.364;2022-09-12T21:52:49;3.42;;;2.40;;
44098;SDS011;29762;50.086;14.364;2022-09-12T21:58:08;2.40;;;2.20;;
44098;SDS011;29762;50.086;14.364;2022-09-12T22:03:28;2.13;;;1.92;;
44098;SDS011;29762;50.086;14.364;2022-09-12T22:08:48;3.53;;;2.33;;
44098;SDS011;29762;50.086;14.364;2022-09-12T22:14:07;2.25;;;2.03;;
44098;SDS011;29762;50.086;14.364;2022-09-12T22:19:26;3.45;;;2.22;;
44098;SDS011;29762;50.086;14.364;2022-09-12T22:24:46;2.50;;;2.03;;
44098;SDS011;29762;50.086;14.364;2022-09-12T22:30:06;3.90;;;2.17;;
44098;SDS011;29762;50.086;14.364;2022-09-12T22:35:26;2.13;;;1.90;;
44098;SDS011;29762;50.086;14.364;2022-09-12T22:40:45;2.60;;;2.28;;
44098;SDS011;29762;50.086;14.364;2022-09-12T22:46:05;2.85;;;2.00;;
44098;SDS011;29762;50.086;14.364;2022-09-12T22:51:26;2.45;;;2.25;;
44098;SDS011;29762;50.086;14.364;2022-09-12T22:56:47;2.42;;;2.10;;
44098;SDS011;29762;50.086;14.364;2022-09-12T23:02:06;2.80;;;2.10;;
44098;SDS011;29762;50.086;14.364;2022-09-12T23:07:26;2.40;;;2.20;;
44098;SDS011;29762;50.086;14.364;2022-09-12T23:12:46;2.25;;;2.05;;
44098;SDS011;29762;50.086;14.364;2022-09-12T23:18:05;3.45;;;2.28;;
44098;SDS011;29762;50.086;14.364;2022-09-12T23:23:26;2.20;;;2.00;;
44098;SDS011;29762;50.086;14.364;2022-09-12T23:28:50;2.17;;;1.98;;
44098;SDS011;29762;50.086;14.364;2022-09-12T23:34:10;2.40;;;2.20;;
44098;SDS011;29762;50.086;14.364;2022-09-12T23:39:30;2.00;;;1.88;;
44098;SDS011;29762;50.086;14.364;2022-09-12T23:44:49;2.97;;;2.00;;
44098;SDS011;29762;50.086;14.364;2022-09-12T23:50:08;2.20;;;2.00;;
44098;SDS011;29762;50.086;14.364;2022-09-12T23:55:28;1.92;;;1.70;;
